createdAt,value
2018-09-24T00:03:54.925Z,87
2018-09-24T00:19:09.088Z,86.9
2018-09-24T00:34:19.414Z,86.3
2018-09-24T00:49:36.884Z,85.7
2018-09-24T01:04:50.818Z,85.4
2018-09-24T01:20:04.778Z,84.5
2018-09-24T01:35:08.877Z,84.3
2018-09-24T01:50:33.567Z,82.5
2018-09-24T02:05:47.713Z,79.8
2018-09-24T02:21:01.327Z,78.3
2018-09-24T02:36:15.742Z,78.3
2018-09-24T02:51:26.824Z,77
2018-09-24T03:06:43.894Z,78
2018-09-24T03:21:58.107Z,77.7
2018-09-24T03:37:12.588Z,77.8
2018-09-24T03:52:16.078Z,77.5
2018-09-24T04:07:40.443Z,76.2
2018-09-24T04:22:54.467Z,76.1
2018-09-24T04:38:09.309Z,75.2
2018-09-24T04:53:22.660Z,74.3
2018-09-24T05:08:33.647Z,75.5
2018-09-24T05:23:50.642Z,74.7
2018-09-24T05:39:08.595Z,73.8
2018-09-24T05:54:21.811Z,72.4
2018-09-24T06:09:33.630Z,71.5
2018-09-24T06:24:47.040Z,66.6
2018-09-24T06:40:01.487Z,60.1
2018-09-24T06:55:16.214Z,59.6
2018-09-24T07:10:30.136Z,62.6
2018-09-24T07:25:44.701Z,59.8
2018-09-24T07:40:59.573Z,59.2
2018-09-24T07:56:13.636Z,57.8
2018-09-24T08:11:27.958Z,56.8
2018-09-24T08:26:38.335Z,55.5
2018-09-24T08:41:57.514Z,51
2018-09-24T08:57:13.162Z,51.6
2018-09-24T09:12:27.343Z,50.5
2018-09-24T09:27:32.592Z,46.8
2018-09-24T09:42:58.031Z,45.4
2018-09-24T09:58:13.135Z,48.2
2018-09-24T10:13:28.305Z,43.1
2018-09-24T10:28:44.001Z,40.4
2018-09-24T10:43:56.335Z,39.2
2018-09-24T10:59:15.289Z,38.9
2018-09-24T11:14:30.282Z,39.8
2018-09-24T11:29:46.387Z,37.1
2018-09-24T11:44:52.160Z,44
2018-09-24T12:00:17.196Z,47.4
2018-09-24T12:15:33.073Z,37.3
2018-09-24T12:30:49.620Z,32
2018-09-24T12:46:05.212Z,37.3
2018-09-24T13:01:17.288Z,38
2018-09-24T13:16:42.716Z,31.4
2018-09-24T13:31:54.077Z,28.6
2018-09-24T13:47:11.153Z,27.6
2018-09-24T14:02:14.714Z,26.9
2018-09-24T14:17:44.156Z,26.1
2018-09-24T14:33:00.404Z,28.8
2018-09-24T14:48:16.599Z,29.6
2018-09-24T15:03:32.559Z,35.2
2018-09-24T15:18:41.174Z,38
2018-09-24T15:34:03.639Z,40.1
2018-09-24T15:49:19.469Z,43.1
2018-09-24T16:04:34.675Z,45.5
2018-09-24T16:19:49.399Z,47.3
2018-09-24T16:35:03.648Z,51.1
2018-09-24T16:50:19.463Z,54.6
2018-09-24T17:05:33.849Z,55.5
2018-09-24T17:36:56.141Z,58.9
2018-09-24T17:52:14.352Z,61.2
2018-09-24T18:07:29.356Z,63
2018-09-24T18:22:42.276Z,63.4
2018-09-24T18:37:46.833Z,63.6
2018-09-24T18:53:11.882Z,62.8
2018-09-24T19:08:25.798Z,62.4
2018-09-24T19:23:38.586Z,62.9
2018-09-24T19:38:53.523Z,64.1
2018-09-24T19:54:02.685Z,64.5
2018-09-24T20:09:21.053Z,65.6
2018-09-24T20:24:35.117Z,66.1
2018-09-24T20:39:49.817Z,67.3
2018-09-24T20:55:03.844Z,67.3
2018-09-24T21:10:16.753Z,67.6
2018-09-24T21:25:30.626Z,67.7
2018-09-24T21:40:44.491Z,67.3
2018-09-24T21:55:58.132Z,67.1
2018-09-24T22:11:07.429Z,67.3
2018-09-24T22:26:25.416Z,67
2018-09-24T22:41:38.877Z,67.9
2018-09-24T22:56:53.176Z,68
2018-09-24T23:12:06.269Z,68.9
2018-09-24T23:27:19.799Z,69.6
2018-09-24T23:42:34.338Z,69.9
2018-09-24T23:57:46.723Z,69.9
